Weather observations for the past three days for
COLUMBIA
Imperial (Metric)
Date Time (pdt) Wind (mph) Vis. (mi.) Weather Sky Cond. Temperature (ºF) Relative Humidity Wind Chill (°F) Heat Index (°F) Pressure Precipitation (in)
Air Dwpt 6 hour altimeter (in) sea level (mb) 1 hr 3 hr 6 hr
Max. Min.
06 09:35 Calm 10.00 Fair CLR 71.6 46.4 41% 29.99 0.0
06 08:55 Calm 10.00 Fair CLR 68 46.4 46% 30 0.0
06 08:35 Calm 10.00 Fair CLR 68 48.2 49% 30 0.0
06 08:15 Calm 10.00 Fair CLR 62.6 48.2 60% 30 0.0
06 07:35 Calm 10.00 Fair CLR 55.4 46.4 72% 29.99 0.0
06 07:15 Calm 10.00 Fair CLR 53.6 46.4 77% 29.99 0.0
06 06:55 Calm 10.00 Fair CLR 51.8 46.4 82% 29.99 0.0
06 06:15 NE 5 10.00 Fair CLR 53.6 46.4 77% 29.97 0.0
06 05:55 Calm 10.00 Fair CLR 53.6 46.4 77% 29.97 0.0
06 05:35 Calm 10.00 Fair CLR 53.6 46.4 77% 29.97 0.0
06 04:55 Calm 10.00 Fair CLR 53.6 46.4 77% 29.97 0.0
06 04:35 Calm 10.00 Fair CLR 53.6 46.4 77% 29.97 0.0
06 04:15 Calm 10.00 Fair CLR 53.6 46.4 77% 29.97 0.0
06 03:55 Calm 10.00 Fair CLR 53.6 46.4 77% 29.97 0.0
06 03:35 Calm 10.00 Fair CLR 53.6 46.4 77% 29.97 0.0
06 03:15 Calm 10.00 Fair CLR 53.6 46.4 77% 29.97 0.0
06 02:55 Calm 10.00 Fair CLR 53.6 46.4 77% 29.97 0.0
06 02:15 Calm 10.00 A Few Clouds FEW045 55.4 46.4 72% 29.97 0.0
06 01:55 Calm 10.00 Fair CLR 55.4 46.4 72% 29.98 0.0
06 01:35 Calm 10.00 A Few Clouds FEW050 55.4 46.4 72% 29.98 0.0
06 01:15 Calm 10.00 A Few Clouds FEW050 55.4 46.4 72% 29.98 0.0
06 00:35 Calm 10.00 A Few Clouds FEW050 57.2 46.4 67% 29.98 0.0
05 23:35 Calm 10.00 Fair CLR 57.2 46.4 67% 29.98 0.0
05 22:35 Calm 10.00 Fair CLR 60.8 46.4 59% 29.98 0.0
05 22:15 Vrbl 3 10.00 Fair CLR 60.8 46.4 59% 29.98 0.0
05 21:55 NE 3 10.00 Fair CLR 60.8 46.4 59% 29.99 0.0
05 21:15 Calm 10.00 Fair CLR 64.4 46.4 52% 29.98 0.0
05 20:55 Calm 10.00 Fair CLR 66.2 46.4 49% 29.98 0.0
05 20:35 Calm 10.00 Fair CLR 66.2 46.4 49% 29.98 0.0
05 20:15 Vrbl 5 10.00 Fair CLR 68 46.4 46% 29.97 0.0
05 19:55 Vrbl 3 10.00 Fair CLR 69.8 46.4 43% 29.97 0.0
05 19:35 Vrbl 5 10.00 Fair CLR 69.8 46.4 43% 29.96 0.0
05 18:55 W 3 10.00 Fair CLR 73.4 46.4 38% 29.97 0.0
05 18:35 SW 5 10.00 Fair CLR 75.2 46.4 36% 77 29.97 0.0
05 17:55 SW 6 10.00 Fair CLR 77 46.4 34% 78 29.97 0.0
05 17:15 SW 6 G 13 10.00 Fair CLR 77 46.4 34% 78 29.97 0.0
05 15:55 W 10 G 16 10.00 Fair CLR 78.8 46.4 32% 79 29.97 0.0
05 15:35 Vrbl 6 G 12 10.00 Fair CLR 78.8 46.4 32% 79 29.98 0.0
05 14:55 SW 7 G 16 10.00 Fair CLR 78.8 44.6 30% 79 29.98 0.0
05 14:15 Vrbl 7 G 16 10.00 A Few Clouds FEW065 80.6 46.4 30% 80 29.98 0.0
05 13:55 S 8 G 16 10.00 Fair CLR 78.8 44.6 30% 79 29.98 0.0
05 13:15 SW 10 10.00 Fair CLR 78.8 44.6 30% 79 29.99 0.0
05 12:55 S 7 10.00 Fair CLR 77 44.6 32% 78 29.99 0.0
05 10:35 Vrbl 5 10.00 Mostly Cloudy BKN080 73.4 41 31% 30 0.0
05 10:15 Calm 10.00 Mostly Cloudy BKN080 71.6 42.8 36% 30 0.0
05 09:55 Calm 10.00 Overcast OVC080 71.6 42.8 36% 29.99 0.0
05 09:35 Calm 10.00 Overcast OVC085 69.8 44.6 40% 29.99 0.0
05 08:55 Calm 10.00 Mostly Cloudy BKN085 66.2 44.6 46% 29.99 0.0
05 08:35 Calm 10.00 A Few Clouds FEW080 62.6 46.4 56% 29.99 0.0
05 08:15 Calm 10.00 Mostly Cloudy BKN080 60.8 46.4 59% 29.99 0.0
05 07:55 Calm 10.00 Mostly Cloudy BKN085 59 46.4 63% 29.99 0.0
05 07:35 Calm 10.00 A Few Clouds FEW085 57.2 44.6 63% 29.99 0.0
05 07:15 Calm 10.00 Mostly Cloudy BKN085 57.2 44.6 63% 29.98 0.0
05 06:35 Calm 10.00 Overcast OVC085 55.4 44.6 67% 29.97 0.0
05 04:15 Calm 10.00 Mostly Cloudy BKN080 53.6 42.8 67% 29.98 0.0
05 03:35 Calm 10.00 Mostly Cloudy BKN080 53.6 42.8 67% 29.98 0.0
05 02:35 Calm 10.00 A Few Clouds FEW080 55.4 42.8 63% 29.99 0.0
05 02:15 Calm 10.00 A Few Clouds FEW080 55.4 42.8 63% 29.99 0.0
05 01:55 Calm 10.00 Partly Cloudy SCT080 55.4 42.8 63% 29.99 0.0
05 01:35 Calm 10.00 A Few Clouds FEW080 57.2 44.6 63% 29.99 0.0
05 01:15 Calm 10.00 Fair CLR 57.2 42.8 59% 29.99 0.0
05 00:55 Calm 10.00 Partly Cloudy SCT080 59 42.8 55% 29.99 0.0
05 00:35 Calm 10.00 Overcast OVC080 60.8 42.8 52% 29.99 0.0
04 23:15 Calm 10.00 Overcast OVC075 62.6 41 45% 29.99 0.0
04 22:15 Calm 10.00 Overcast OVC075 64.4 39.2 40% 29.99 0.0
04 20:55 Calm 10.00 Overcast OVC065 66.2 41 40% 29.98 0.0
04 20:35 Calm 10.00 Overcast OVC070 66.2 41 40% 29.97 0.0
04 20:15 Calm 10.00 Overcast OVC070 66.2 41 40% 29.97 0.0
04 19:35 W 3 10.00 Partly Cloudy SCT070 68 41 38% 29.96 0.0
04 18:55 SW 5 10.00 Fair CLR 69.8 42.8 38% 29.96 0.0
04 18:15 SW 7 10.00 Fair CLR 71.6 42.8 36% 29.96 0.0
04 16:15 S 6 10.00 Partly Cloudy SCT080 73.4 39.2 29% 29.96 0.0
04 15:55 S 6 10.00 Fair CLR 73.4 37.4 27% 29.97 0.0
04 15:35 SW 8 10.00 A Few Clouds FEW090 73.4 35.6 25% 29.97 0.0
04 15:15 W 8 G 14 10.00 A Few Clouds FEW046 FEW090 73.4 35.6 25% 29.97 0.0
04 14:15 Vrbl 5 10.00 Mostly Cloudy BKN085 71.6 48.2 44% 29.97 0.0
04 13:55 Vrbl 3 10.00 Mostly Cloudy SCT080 BKN090 71.6 48.2 44% 29.98 0.0
04 13:35 S 5 10.00 Overcast OVC075 69.8 48.2 46% 29.98 0.0
04 13:15 S 5 10.00 Overcast OVC075 69.8 48.2 46% 29.98 0.0
04 12:55 Calm 10.00 Mostly Cloudy BKN080 68 50 53% 29.98 0.0
04 12:35 Vrbl 3 10.00 Overcast OVC080 66.2 50 56% 29.98 0.0
04 12:15 W 7 10.00 Overcast FEW027 OVC080 68 50 53% 29.98 0.0
04 11:55 SW 8 10.00 Overcast SCT023 OVC080 66.2 50 56% 29.99 0.0
04 11:35 W 5 10.00 Overcast OVC022 64.4 51.8 64% 29.99 0.0
04 11:15 Vrbl 5 10.00 Overcast OVC020 64.4 53.6 68% 29.99 0.0
04 10:55 Calm 10.00 Overcast OVC018 62.6 53.6 73% 29.99 0.0
04 10:35 Calm 10.00 Overcast OVC017 62.6 53.6 73% 29.99 0.0
04 10:15 S 5 10.00 Overcast OVC016 62.6 53.6 73% 29.98 0.0
04 09:15 Calm 10.00 Overcast OVC012 60.8 55.4 83% 29.97 0.0
04 07:15 Vrbl 5 10.00 Overcast OVC007 59 57.2 94% 29.95 0.0
04 06:55 Calm 10.00 Overcast OVC008 59 57.2 94% 29.94 0.0
04 06:15 W 5 10.00 Overcast SCT009 BKN014 OVC018 60.8 57.2 88% 29.93 0.0
04 05:55 Calm 10.00 Overcast FEW015 SCT019 OVC060 60.8 57.2 88% 29.93 0.0
04 05:35 Calm 10.00 Overcast FEW045 BKN060 OVC070 60.8 57.2 88% 29.92 0.0
04 05:15 Calm 10.00 Overcast BKN060 OVC070 60.8 57.2 88% 29.92 0.0
04 04:55 Calm 10.00 Overcast FEW045 BKN060 OVC085 60.8 55.4 83% 29.92 0.0
04 04:35 Calm 10.00 Overcast SCT060 BKN070 OVC085 60.8 55.4 83% 29.91 0.0
04 04:15 Calm 10.00 Overcast FEW060 FEW070 OVC080 60.8 57.2 88% 29.92 0.0
04 03:35 Calm 10.00 Overcast SCT060 OVC075 60.8 57.2 88% 29.91 0.0
04 03:15 W 3 10.00 Overcast BKN060 OVC075 60.8 55.4 83% 29.91 0.0
04 02:55 Calm 10.00 Overcast BKN060 OVC075 62.6 55.4 77% 29.91 0.0
04 02:15 Calm 10.00 Overcast FEW049 SCT060 OVC070 60.8 55.4 83% 29.91 0.0
04 01:55 Calm 10.00 Overcast SCT065 OVC075 60.8 55.4 83% 29.91 0.0
04 01:35 Calm 10.00 Overcast OVC065 60.8 55.4 83% 29.91 0.0
04 01:15 Calm 10.00 Overcast BKN060 OVC070 60.8 55.4 83% 29.91 0.0
04 00:35 Calm 10.00 Overcast FEW049 BKN060 OVC090 60.8 55.4 83% 29.91 0.0
03 23:55 W 3 10.00 Overcast FEW070 OVC090 62.6 55.4 77% 29.9 0.0
03 23:35 Calm 10.00 Overcast FEW060 SCT070 OVC095 62.6 55.4 77% 29.9 0.0
03 23:15 Calm 10.00 Overcast BKN055 OVC090 62.6 55.4 77% 29.9 0.0
03 22:55 W 3 10.00 Overcast OVC050 62.6 55.4 77% 29.91 0.0
03 22:15 Vrbl 3 10.00 Overcast BKN055 OVC095 64.4 55.4 73% 29.92 0.0
03 21:55 W 5 10.00 Overcast FEW055 OVC095 64.4 55.4 73% 29.92 0.0
03 21:35 W 6 10.00 Overcast OVC100 64.4 55.4 73% 29.92 0.0
03 21:15 Vrbl 6 10.00 Overcast OVC100 64.4 55.4 73% 29.92 0.0
03 20:55 W 5 10.00 Overcast OVC100 64.4 55.4 73% 29.91 0.0
03 20:35 W 3 10.00 Overcast OVC100 64.4 55.4 73% 29.9 0.0
03 20:15 Calm 10.00 Mostly Cloudy BKN100 66.2 53.6 64% 29.9 0.0
03 19:55 W 3 10.00 Mostly Cloudy BKN100 66.2 53.6 64% 29.9 0.0
03 19:15 W 8 10.00 Overcast OVC100 69.8 51.8 53% 29.9 0.0
03 18:55 Vrbl 5 10.00 Overcast OVC100 73.4 48.2 41% 29.9 0.0
03 18:35 Vrbl 7 10.00 Mostly Cloudy BKN100 73.4 48.2 41% 29.9 0.0
03 17:55 Vrbl 6 10.00 Mostly Cloudy BKN095 75.2 41 29% 77 29.91 0.0
03 17:35 Vrbl 6 10.00 Partly Cloudy SCT100 75.2 39.2 27% 77 29.91 0.0
03 17:15 S 6 G 12 10.00 Overcast OVC100 75.2 41 29% 77 29.91 0.0
03 16:55 S 6 10.00 Overcast OVC100 77 42.8 30% 78 29.91 0.0
03 16:35 SW 6 G 13 10.00 Mostly Cloudy BKN100 75.2 44.6 34% 77 29.92 0.0
03 16:15 SW 8 10.00 Mostly Cloudy BKN100 77 46.4 34% 78 29.93 0.0
03 15:35 SW 5 G 13 10.00 Partly Cloudy SCT100 77 46.4 34% 78 29.94 0.0
03 14:55 S 9 G 17 10.00 Mostly Cloudy BKN100 77 48.2 36% 78 29.95 0.0
03 13:55 S 8 G 15 10.00 Fair CLR 75.2 50 41% 78 29.95 0.0
03 13:35 Vrbl 6 G 13 10.00 Fair CLR 75.2 50 41% 78 29.96 0.0
03 13:15 S 8 G 14 10.00 A Few Clouds FEW110 75.2 50 41% 78 29.96 0.0
03 12:55 S 9 G 16 10.00 A Few Clouds FEW110 75.2 48.2 39% 77 29.96 0.0
03 12:35 S 5 G 13 10.00 Fair CLR 75.2 48.2 39% 77 29.97 0.0
03 12:15 Vrbl 3 G 15 10.00 A Few Clouds FEW110 75.2 48.2 39% 77 29.97 0.0
03 11:35 SW 8 10.00 Fair CLR 73.4 48.2 41% 29.98 0.0
03 10:55 S 6 10.00 Mostly Cloudy BKN110 73.4 48.2 41% 29.99 0.0
Date Time (pdt) Wind (mph) Vis. (mi.) Weather Sky Cond. Air Dwpt Max. Min. Relative Humidity Wind Chill (°F) Heat Index (°F) altimeter (in) sea level (mb) 1 hr 3 hr 6 hr
6 hour
Temperature (ºF) Pressure Precipitation (in)